createdAt,value
2018-04-07T00:00:53.651Z,5.20
2018-04-07T00:01:53.682Z,5.00
2018-04-07T00:02:53.708Z,5.10
2018-04-07T00:03:53.736Z,5.70
2018-04-07T00:04:53.774Z,5.70
2018-04-07T00:05:53.798Z,5.10
2018-04-07T00:06:53.828Z,6.00
2018-04-07T00:07:53.860Z,6.00
2018-04-07T00:08:53.888Z,6.10
2018-04-07T00:09:53.922Z,6.70
2018-04-07T00:10:53.960Z,7.00
2018-04-07T00:11:53.981Z,6.10
2018-04-07T00:12:54.011Z,7.10
2018-04-07T00:13:54.044Z,6.90
2018-04-07T00:14:54.073Z,7.10
2018-04-07T00:15:54.103Z,6.90
2018-04-07T00:16:54.188Z,7.20
2018-04-07T00:17:54.165Z,7.40
2018-04-07T00:18:54.205Z,6.90
2018-04-07T00:19:54.229Z,7.10
2018-04-07T00:20:54.255Z,6.90
2018-04-07T00:21:54.286Z,6.50
2018-04-07T00:22:54.317Z,6.70
2018-04-07T00:23:54.349Z,6.80
2018-04-07T00:24:54.378Z,7.60
2018-04-07T00:25:54.413Z,6.90
2018-04-07T00:26:54.439Z,6.80
2018-04-07T00:27:54.471Z,6.70
2018-04-07T00:28:54.501Z,6.90
2018-04-07T00:29:54.532Z,7.20
2018-04-07T00:30:54.561Z,6.80
2018-04-07T00:31:54.592Z,7.10
2018-04-07T00:32:54.626Z,6.70
2018-04-07T00:33:54.662Z,6.90
2018-04-07T00:34:54.684Z,6.80
2018-04-07T00:35:54.716Z,6.60
2018-04-07T00:36:54.746Z,6.80
2018-04-07T00:37:54.776Z,7.00
2018-04-07T00:38:54.807Z,7.20
2018-04-07T00:39:54.843Z,7.60
2018-04-07T00:40:54.868Z,7.50
2018-04-07T00:41:54.899Z,7.40
2018-04-07T00:42:54.928Z,6.50
2018-04-07T00:43:54.965Z,7.00
2018-04-07T00:44:54.991Z,7.50
2018-04-07T00:45:55.020Z,7.30
2018-04-07T00:46:55.049Z,7.40
2018-04-07T00:47:55.081Z,7.20
2018-04-07T00:48:55.113Z,7.00
2018-04-07T00:49:55.150Z,6.70
2018-04-07T00:50:55.176Z,7.40
2018-04-07T00:51:55.203Z,7.00
2018-04-07T00:52:55.236Z,7.10
2018-04-07T00:53:55.269Z,7.30
2018-04-07T00:54:55.295Z,6.90
2018-04-07T00:55:55.324Z,6.90
2018-04-07T00:56:55.358Z,7.10
2018-04-07T00:57:55.385Z,7.00
2018-04-07T00:58:55.416Z,7.30
2018-04-07T00:59:55.447Z,6.60
2018-04-07T01:00:55.477Z,6.10
2018-04-07T01:01:55.510Z,6.10
2018-04-07T01:02:55.537Z,6.20
2018-04-07T01:03:55.568Z,6.30
2018-04-07T01:04:55.598Z,6.20
2018-04-07T01:05:55.630Z,5.80
2018-04-07T01:06:55.660Z,5.80
2018-04-07T01:07:55.690Z,5.70
2018-04-07T01:08:55.720Z,5.40
2018-04-07T01:09:55.753Z,5.60
2018-04-07T01:10:55.780Z,6.20
2018-04-07T01:11:55.812Z,5.90
2018-04-07T01:12:55.842Z,6.10
2018-04-07T01:13:55.873Z,6.00
2018-04-07T01:14:55.905Z,6.20
2018-04-07T01:15:55.938Z,5.90
2018-04-07T01:16:55.964Z,5.80
2018-04-07T01:17:56.002Z,5.90
2018-04-07T01:18:56.034Z,6.10
2018-04-07T01:19:56.056Z,6.20
2018-04-07T01:20:56.086Z,5.70
2018-04-07T01:21:56.117Z,5.90
2018-04-07T01:22:56.145Z,6.00
2018-04-07T01:23:56.177Z,6.00
2018-04-07T01:24:56.208Z,6.40
2018-04-07T01:25:56.240Z,6.60
2018-04-07T01:26:56.270Z,6.00
2018-04-07T01:27:56.299Z,5.90
2018-04-07T01:28:56.335Z,6.00
2018-04-07T01:29:56.369Z,5.30
2018-04-07T01:30:56.390Z,5.50
2018-04-07T01:31:56.420Z,5.70
2018-04-07T01:32:56.452Z,5.80
2018-04-07T01:33:56.481Z,6.10
2018-04-07T01:34:56.511Z,5.80
2018-04-07T01:35:56.542Z,6.00
2018-04-07T01:36:56.572Z,5.70
2018-04-07T01:37:56.604Z,5.70
2018-04-07T01:38:56.632Z,5.90
2018-04-07T01:39:56.671Z,5.60
2018-04-07T01:40:56.695Z,6.40
2018-04-07T01:41:56.724Z,5.40
2018-04-07T01:42:56.754Z,6.20
2018-04-07T01:43:56.785Z,5.90
2018-04-07T01:44:56.815Z,6.00
2018-04-07T01:45:56.848Z,6.30
2018-04-07T01:46:56.876Z,6.00
2018-04-07T01:47:56.907Z,6.10
2018-04-07T01:48:56.942Z,6.20
2018-04-07T01:49:56.968Z,5.90
2018-04-07T01:50:56.997Z,5.80
2018-04-07T01:51:57.028Z,6.40
2018-04-07T01:52:57.061Z,6.10
2018-04-07T01:53:57.089Z,6.10
2018-04-07T01:54:57.120Z,6.10
2018-04-07T01:55:57.149Z,5.80
2018-04-07T01:56:57.185Z,6.10
2018-04-07T01:57:57.211Z,6.50
2018-04-07T01:58:57.240Z,5.80
2018-04-07T01:59:57.272Z,5.90
2018-04-07T02:00:57.303Z,6.30
2018-04-07T02:01:57.335Z,5.80
2018-04-07T02:02:57.365Z,6.30
2018-04-07T02:03:57.392Z,6.10
2018-04-07T02:04:57.424Z,5.80
2018-04-07T02:05:57.453Z,6.00
2018-04-07T02:06:57.482Z,6.20
2018-04-07T02:07:57.515Z,5.60
2018-04-07T02:08:57.542Z,6.00
2018-04-07T02:09:57.574Z,6.30
2018-04-07T02:10:57.603Z,6.40
2018-04-07T02:11:57.635Z,6.20
2018-04-07T02:12:57.715Z,6.20
2018-04-07T02:13:57.710Z,5.50
2018-04-07T02:14:57.725Z,5.60
2018-04-07T02:15:57.755Z,5.50
2018-04-07T02:16:57.785Z,5.50
2018-04-07T02:17:57.816Z,5.00
2018-04-07T02:18:57.846Z,5.30
2018-04-07T02:19:57.874Z,5.30
2018-04-07T02:20:57.905Z,5.50
2018-04-07T02:21:57.942Z,5.50
2018-04-07T02:22:57.965Z,5.50
2018-04-07T02:23:57.998Z,5.50
2018-04-07T02:24:58.026Z,5.50
2018-04-07T02:25:58.057Z,5.80
2018-04-07T02:26:58.087Z,5.50
2018-04-07T02:27:58.117Z,5.60
2018-04-07T02:28:58.151Z,5.50
2018-04-07T02:29:58.177Z,5.30
2018-04-07T02:30:58.229Z,5.20
2018-04-07T02:31:58.237Z,5.50
2018-04-07T02:32:58.289Z,5.40
2018-04-07T02:33:58.304Z,5.40
2018-04-07T02:34:58.335Z,5.00
2018-04-07T02:35:58.360Z,5.60
2018-04-07T02:36:58.390Z,5.20
2018-04-07T02:37:58.420Z,5.50
2018-04-07T02:38:58.451Z,5.70
2018-04-07T02:39:58.481Z,5.70
2018-04-07T02:40:58.512Z,5.40
2018-04-07T02:41:58.541Z,5.50
2018-04-07T02:42:58.573Z,5.80
2018-04-07T02:43:58.604Z,5.50
2018-04-07T02:44:58.632Z,6.00
2018-04-07T02:45:58.670Z,6.20
2018-04-07T02:46:58.692Z,5.60
2018-04-07T02:47:58.732Z,5.60
2018-04-07T02:48:58.761Z,5.90
2018-04-07T02:49:58.788Z,5.90
2018-04-07T02:50:58.834Z,5.40
2018-04-07T02:51:58.843Z,5.90
2018-04-07T02:52:58.873Z,5.60
2018-04-07T02:53:58.904Z,5.70
2018-04-07T02:54:58.940Z,5.70
2018-04-07T02:55:58.963Z,5.20
2018-04-07T02:56:58.994Z,5.50
2018-04-07T02:57:59.025Z,5.60
2018-04-07T02:58:59.052Z,5.80
2018-04-07T02:59:59.084Z,5.50
2018-04-07T03:00:59.114Z,5.80
2018-04-07T03:01:59.146Z,5.80
2018-04-07T03:02:59.175Z,5.70
2018-04-07T03:03:59.205Z,5.70
2018-04-07T03:04:59.236Z,5.70
2018-04-07T03:05:59.267Z,5.90
2018-04-07T03:06:59.294Z,5.60
2018-04-07T03:07:59.325Z,5.90
2018-04-07T03:08:59.356Z,5.70
2018-04-07T03:09:59.386Z,5.40
2018-04-07T03:10:59.415Z,5.50
2018-04-07T03:11:59.446Z,5.40
2018-04-07T03:12:59.476Z,5.30
2018-04-07T03:13:59.507Z,5.20
2018-04-07T03:14:59.535Z,5.50
2018-04-07T03:15:59.566Z,5.60
2018-04-07T03:16:59.597Z,5.60
2018-04-07T03:17:59.626Z,5.70
2018-04-07T03:18:59.656Z,5.40
2018-04-07T03:19:59.685Z,5.40
2018-04-07T03:20:59.719Z,5.60
2018-04-07T03:21:59.747Z,5.50
2018-04-07T03:22:59.783Z,5.20
2018-04-07T03:23:59.806Z,5.30
2018-04-07T03:24:59.837Z,5.60
2018-04-07T03:25:59.866Z,5.60
2018-04-07T03:26:59.899Z,5.50
2018-04-07T03:27:59.931Z,5.50
2018-04-07T03:28:59.981Z,5.60
2018-04-07T03:29:59.988Z,5.80
2018-04-07T03:31:00.018Z,5.00
2018-04-07T03:32:00.149Z,5.50
2018-04-07T03:33:00.081Z,5.20
2018-04-07T03:34:00.108Z,5.20
2018-04-07T03:35:00.141Z,5.40
2018-04-07T03:36:00.167Z,5.50
2018-04-07T03:37:00.197Z,5.30
2018-04-07T03:38:00.229Z,5.50
2018-04-07T03:39:00.263Z,5.40
2018-04-07T03:40:00.286Z,5.60
2018-04-07T03:41:00.317Z,5.60
2018-04-07T03:42:00.398Z,5.40
2018-04-07T03:43:00.377Z,5.90
2018-04-07T03:44:00.407Z,6.20
2018-04-07T03:45:00.438Z,5.90
2018-04-07T03:46:00.467Z,5.80
2018-04-07T03:47:00.497Z,6.30
2018-04-07T03:48:00.526Z,6.10
2018-04-07T03:49:00.558Z,6.60
2018-04-07T03:50:00.588Z,6.60
2018-04-07T03:51:00.618Z,6.60
2018-04-07T03:52:00.647Z,5.90
2018-04-07T03:53:00.677Z,6.10
2018-04-07T03:54:00.708Z,5.80
2018-04-07T03:55:00.737Z,6.50
2018-04-07T03:56:00.769Z,6.20
2018-04-07T03:57:00.797Z,5.50
2018-04-07T03:58:00.837Z,5.70
2018-04-07T03:59:00.858Z,5.70
2018-04-07T04:00:00.888Z,5.70
2018-04-07T04:01:00.925Z,6.10
2018-04-07T04:02:00.949Z,6.00
2018-04-07T04:03:00.979Z,5.90
2018-04-07T04:04:01.007Z,5.60
2018-04-07T04:05:01.038Z,5.90
2018-04-07T04:06:01.072Z,6.40
2018-04-07T04:07:01.097Z,6.10
2018-04-07T04:08:01.134Z,6.00
2018-04-07T04:09:01.158Z,6.20
2018-04-07T04:10:01.190Z,6.30
2018-04-07T04:11:01.218Z,6.10
2018-04-07T04:12:01.248Z,6.30
2018-04-07T04:13:01.279Z,6.10
2018-04-07T04:14:01.308Z,6.50
2018-04-07T04:15:01.342Z,6.20
2018-04-07T04:16:01.366Z,6.20
2018-04-07T04:17:01.397Z,6.20
2018-04-07T04:18:01.430Z,6.00
2018-04-07T04:19:01.455Z,6.40
2018-04-07T04:20:01.486Z,6.80
2018-04-07T04:21:01.521Z,6.90
2018-04-07T04:22:01.548Z,6.30
2018-04-07T04:23:01.576Z,6.00
2018-04-07T04:24:01.606Z,6.00
2018-04-07T04:25:01.636Z,6.90
2018-04-07T04:26:01.667Z,6.30
2018-04-07T04:27:01.697Z,6.50
2018-04-07T04:28:01.730Z,6.20
2018-04-07T04:29:01.756Z,7.10
2018-04-07T04:30:01.790Z,6.10
2018-04-07T04:31:01.817Z,6.20
2018-04-07T04:32:01.846Z,6.70
2018-04-07T04:33:01.880Z,6.50
2018-04-07T04:34:01.914Z,6.90
2018-04-07T04:35:01.939Z,6.90
2018-04-07T04:36:01.966Z,6.60
2018-04-07T04:37:01.997Z,6.20
2018-04-07T04:38:02.028Z,6.80
2018-04-07T04:39:02.061Z,6.60
2018-04-07T04:40:02.088Z,6.90
2018-04-07T04:41:02.114Z,6.80
2018-04-07T04:42:02.146Z,6.50
2018-04-07T04:43:02.174Z,6.80
2018-04-07T04:44:02.207Z,6.80
2018-04-07T04:45:02.236Z,6.50
2018-04-07T04:46:02.269Z,6.60
2018-04-07T04:47:02.296Z,6.50
2018-04-07T04:48:02.331Z,6.10
2018-04-07T04:49:02.356Z,6.50
2018-04-07T04:50:02.386Z,6.10
2018-04-07T04:51:02.414Z,6.70
2018-04-07T04:52:02.451Z,7.20
2018-04-07T04:53:02.476Z,6.30
2018-04-07T04:54:02.504Z,7.20
2018-04-07T04:55:02.549Z,6.70
2018-04-07T04:56:02.563Z,6.80
2018-04-07T04:57:02.593Z,6.30
2018-04-07T04:58:02.629Z,6.70
2018-04-07T04:59:02.654Z,6.80
2018-04-07T05:00:02.684Z,6.60
2018-04-07T05:01:02.715Z,6.30
2018-04-07T05:02:02.746Z,6.90
2018-04-07T05:03:02.773Z,6.30
2018-04-07T05:04:02.803Z,6.80
2018-04-07T05:05:02.834Z,6.00
2018-04-07T05:06:02.872Z,6.30
2018-04-07T05:07:02.892Z,6.20
2018-04-07T05:08:02.922Z,6.50
2018-04-07T05:09:02.955Z,6.10
2018-04-07T05:10:02.984Z,6.50
2018-04-07T05:11:03.014Z,6.30
2018-04-07T05:12:03.043Z,6.30
2018-04-07T05:13:03.074Z,6.50
2018-04-07T05:14:03.102Z,6.00
2018-04-07T05:15:03.161Z,6.10
2018-04-07T05:16:03.165Z,6.20
2018-04-07T05:17:03.194Z,6.20
2018-04-07T05:18:03.225Z,6.10
2018-04-07T05:19:03.253Z,6.00
2018-04-07T05:20:03.284Z,6.10
2018-04-07T05:21:03.313Z,6.10
2018-04-07T05:22:03.344Z,6.00
2018-04-07T05:23:03.373Z,5.70
2018-04-07T05:24:03.404Z,6.30
2018-04-07T05:25:03.434Z,5.80
2018-04-07T05:26:03.462Z,5.70
2018-04-07T05:27:03.493Z,5.70
2018-04-07T05:28:03.525Z,6.20
2018-04-07T05:29:03.554Z,5.90
2018-04-07T05:30:03.584Z,5.90
2018-04-07T05:31:03.612Z,5.90
2018-04-07T05:32:03.644Z,5.90
2018-04-07T05:33:03.678Z,5.90
2018-04-07T05:34:03.706Z,5.80
2018-04-07T05:35:03.734Z,5.60
2018-04-07T05:36:03.766Z,5.80
2018-04-07T05:37:03.792Z,5.80
2018-04-07T05:38:03.826Z,5.60
2018-04-07T05:39:03.852Z,6.20
2018-04-07T05:40:03.882Z,6.10
2018-04-07T05:41:03.913Z,5.90
2018-04-07T05:42:03.948Z,5.90
2018-04-07T05:43:03.973Z,6.10
2018-04-07T05:44:04.003Z,5.90
2018-04-07T05:45:04.038Z,5.90
2018-04-07T05:46:04.065Z,5.80
2018-04-07T05:47:04.094Z,5.50
2018-04-07T05:48:04.125Z,5.30
2018-04-07T05:49:04.154Z,5.90
2018-04-07T05:50:04.188Z,5.80
2018-04-07T05:51:04.215Z,5.50
2018-04-07T05:52:04.246Z,5.30
2018-04-07T05:53:04.282Z,5.30
2018-04-07T05:54:04.306Z,5.50
2018-04-07T05:55:04.340Z,5.10
2018-04-07T05:56:04.376Z,5.40
2018-04-07T05:57:04.397Z,5.80
2018-04-07T05:58:04.433Z,5.90
2018-04-07T05:59:04.463Z,6.10
2018-04-07T06:00:04.489Z,6.10
2018-04-07T06:01:04.520Z,5.80
2018-04-07T06:02:04.549Z,5.70
2018-04-07T06:03:04.578Z,6.10
2018-04-07T06:04:04.617Z,5.80
2018-04-07T06:05:04.642Z,5.80
2018-04-07T06:06:04.671Z,5.60
2018-04-07T06:07:04.707Z,5.60
2018-04-07T06:08:04.734Z,6.00
2018-04-07T06:09:04.762Z,5.40
2018-04-07T06:10:04.793Z,6.10
2018-04-07T06:11:04.821Z,5.80
2018-04-07T06:12:04.855Z,5.60
2018-04-07T06:13:04.884Z,5.50
2018-04-07T06:14:04.918Z,5.60
2018-04-07T06:15:04.945Z,5.50
2018-04-07T06:16:04.974Z,6.10
2018-04-07T06:17:05.006Z,5.70
2018-04-07T06:18:05.037Z,5.90
2018-04-07T06:19:05.066Z,5.70
2018-04-07T06:20:05.098Z,5.90
2018-04-07T06:21:05.128Z,6.20
2018-04-07T06:22:05.168Z,5.90
2018-04-07T06:23:05.188Z,5.90
2018-04-07T06:24:05.220Z,5.80
2018-04-07T06:25:05.250Z,5.70
2018-04-07T06:26:05.281Z,6.20
2018-04-07T06:27:05.313Z,5.40
2018-04-07T06:28:05.345Z,6.10
2018-04-07T06:29:05.374Z,5.30
2018-04-07T06:30:05.405Z,5.30
2018-04-07T06:31:05.435Z,6.00
2018-04-07T06:32:05.465Z,5.70
2018-04-07T06:33:05.497Z,5.60
2018-04-07T06:34:05.529Z,5.50
2018-04-07T06:35:05.563Z,6.00
2018-04-07T06:36:05.597Z,5.50
2018-04-07T06:37:05.621Z,5.70
2018-04-07T06:38:05.657Z,6.00
2018-04-07T06:39:05.683Z,6.10
2018-04-07T06:40:05.719Z,5.80
2018-04-07T06:41:05.746Z,5.40
2018-04-07T06:42:05.776Z,5.60
2018-04-07T06:43:05.807Z,5.70
2018-04-07T06:44:05.838Z,5.50
2018-04-07T06:45:05.869Z,6.20
2018-04-07T06:46:05.901Z,5.80
2018-04-07T06:47:05.935Z,6.10
2018-04-07T06:48:05.987Z,6.20
2018-04-07T06:49:05.994Z,6.30
2018-04-07T06:50:06.027Z,6.20
2018-04-07T06:51:06.057Z,6.20
2018-04-07T06:52:06.088Z,6.10
2018-04-07T06:53:06.118Z,5.90
2018-04-07T06:54:06.150Z,5.70
2018-04-07T06:55:06.199Z,6.10
2018-04-07T06:56:06.221Z,5.90
2018-04-07T06:57:06.245Z,6.50
2018-04-07T06:58:06.278Z,5.60
2018-04-07T06:59:06.308Z,5.80
2018-04-07T07:00:06.340Z,5.90
2018-04-07T07:01:06.370Z,6.10
2018-04-07T07:02:06.401Z,5.80
2018-04-07T07:03:06.440Z,5.40
2018-04-07T07:04:06.465Z,5.80
2018-04-07T07:05:06.496Z,6.20
2018-04-07T07:06:06.528Z,6.50
2018-04-07T07:07:06.560Z,6.30
2018-04-07T07:08:06.595Z,7.10
2018-04-07T07:09:06.624Z,7.20
2018-04-07T07:10:06.655Z,7.10
2018-04-07T07:11:06.688Z,6.30
2018-04-07T07:12:06.720Z,6.00
2018-04-07T07:13:06.753Z,6.10
2018-04-07T07:14:06.783Z,6.40
2018-04-07T07:15:06.817Z,6.20
2018-04-07T07:16:06.849Z,5.90
2018-04-07T07:17:06.887Z,6.00
2018-04-07T07:18:06.914Z,5.50
2018-04-07T07:19:06.944Z,6.20
2018-04-07T07:20:06.978Z,5.80
2018-04-07T07:21:07.007Z,5.70
2018-04-07T07:22:07.048Z,5.80
2018-04-07T07:23:07.080Z,5.70
2018-04-07T07:24:07.108Z,5.60
2018-04-07T07:25:07.141Z,5.70
2018-04-07T07:26:07.170Z,5.40
2018-04-07T07:27:07.201Z,5.80
2018-04-07T07:28:07.252Z,5.40
2018-04-07T07:29:07.293Z,5.50
2018-04-07T07:30:07.299Z,5.80
2018-04-07T07:31:07.332Z,5.50
2018-04-07T07:32:07.363Z,5.60
2018-04-07T07:33:07.396Z,5.90
2018-04-07T07:34:07.431Z,5.90
2018-04-07T07:35:07.461Z,5.60
2018-04-07T07:36:07.494Z,5.90
2018-04-07T07:37:07.525Z,6.30
2018-04-07T07:38:07.558Z,6.10
2018-04-07T07:39:07.590Z,7.80
2018-04-07T07:40:07.630Z,6.60
2018-04-07T07:41:07.664Z,7.50
2018-04-07T07:42:07.737Z,7.20
2018-04-07T07:43:07.740Z,7.90
2018-04-07T07:44:07.759Z,7.20
2018-04-07T07:45:07.788Z,6.80
2018-04-07T07:46:07.820Z,7.40
2018-04-07T07:47:07.856Z,7.70
2018-04-07T07:48:07.893Z,6.10
2018-04-07T07:49:07.926Z,6.20
2018-04-07T07:50:07.953Z,6.20
2018-04-07T07:51:07.984Z,6.60
2018-04-07T07:52:08.019Z,6.30
2018-04-07T07:53:08.054Z,6.50
2018-04-07T07:54:08.089Z,6.00
2018-04-07T07:55:08.117Z,6.10
2018-04-07T07:56:08.159Z,6.60
2018-04-07T07:57:08.186Z,6.40
2018-04-07T07:58:08.226Z,6.30
2018-04-07T07:59:08.250Z,6.10
2018-04-07T08:00:08.285Z,6.70
2018-04-07T08:01:08.324Z,7.30
2018-04-07T08:02:08.351Z,7.30
2018-04-07T08:03:08.384Z,7.40
2018-04-07T08:04:08.416Z,7.30
2018-04-07T08:05:08.456Z,7.30
2018-04-07T08:06:08.492Z,6.70
2018-04-07T08:07:08.518Z,6.90
2018-04-07T08:08:08.550Z,6.60
2018-04-07T08:09:08.586Z,6.70
2018-04-07T08:10:08.619Z,7.50
2018-04-07T08:11:08.653Z,7.80
2018-04-07T08:12:08.686Z,5.80
2018-04-07T08:13:08.721Z,5.70
2018-04-07T08:14:08.754Z,5.80
2018-04-07T08:15:08.788Z,5.20
2018-04-07T08:16:08.821Z,5.20
2018-04-07T08:17:08.855Z,4.60
2018-04-07T08:18:08.890Z,4.70
2018-04-07T08:19:08.924Z,4.70
2018-04-07T08:20:08.957Z,4.30
2018-04-07T08:21:08.992Z,4.50
2018-04-07T08:22:09.037Z,4.10
2018-04-07T08:23:09.060Z,4.70
2018-04-07T08:24:09.099Z,4.20
2018-04-07T08:25:09.127Z,3.90
2018-04-07T08:26:09.216Z,4.20
2018-04-07T08:27:09.197Z,3.90
2018-04-07T08:28:09.232Z,4.30
2018-04-07T08:29:09.274Z,4.30
2018-04-07T08:30:09.309Z,4.00
2018-04-07T08:31:09.337Z,4.60
2018-04-07T08:32:09.446Z,4.30
2018-04-07T08:33:09.404Z,4.20
2018-04-07T08:34:09.448Z,4.20
2018-04-07T08:35:09.472Z,4.10
2018-04-07T08:36:09.508Z,4.00
2018-04-07T08:37:09.556Z,3.80
2018-04-07T08:38:09.577Z,4.30
2018-04-07T08:39:09.611Z,3.90
2018-04-07T08:40:09.658Z,4.00
2018-04-07T08:41:09.685Z,3.60
2018-04-07T08:42:09.716Z,3.80
2018-04-07T08:43:09.752Z,3.90
2018-04-07T08:44:09.793Z,4.00
2018-04-07T08:45:09.820Z,3.80
2018-04-07T08:46:09.855Z,3.90
2018-04-07T08:47:09.902Z,3.90
2018-04-07T08:48:09.925Z,4.00
2018-04-07T08:49:09.960Z,3.90
2018-04-07T08:50:09.999Z,4.00
2018-04-07T08:51:10.031Z,3.80
2018-04-07T08:52:10.066Z,3.80
2018-04-07T08:53:10.103Z,3.90
2018-04-07T08:54:10.138Z,4.20
2018-04-07T08:55:10.174Z,4.10
2018-04-07T08:56:10.209Z,3.80
2018-04-07T08:57:10.245Z,3.80
2018-04-07T08:58:10.284Z,3.60
2018-04-07T08:59:10.323Z,3.80
2018-04-07T09:00:10.353Z,3.80
2018-04-07T09:01:10.388Z,3.80
2018-04-07T09:02:10.425Z,3.70
2018-04-07T09:03:10.465Z,3.90
2018-04-07T09:04:10.494Z,4.10
2018-04-07T09:05:10.549Z,4.20
2018-04-07T09:06:10.564Z,3.90
2018-04-07T09:07:10.602Z,3.90
2018-04-07T09:08:10.637Z,3.80
2018-04-07T09:09:10.674Z,3.90
2018-04-07T09:10:10.709Z,4.30
2018-04-07T09:11:10.747Z,4.00
2018-04-07T09:12:10.782Z,3.50
2018-04-07T09:13:10.817Z,3.80
2018-04-07T09:14:10.854Z,3.50
2018-04-07T09:15:10.889Z,3.40
2018-04-07T09:16:10.934Z,3.60
2018-04-07T09:17:10.961Z,3.60
2018-04-07T09:18:11.002Z,3.80
2018-04-07T09:19:11.033Z,3.60
2018-04-07T09:20:11.076Z,3.70
2018-04-07T09:21:11.106Z,3.20
2018-04-07T09:22:11.144Z,3.40
2018-04-07T09:23:11.182Z,3.50
2018-04-07T09:24:11.214Z,3.60
2018-04-07T09:25:11.251Z,3.40
2018-04-07T09:26:11.288Z,3.20
2018-04-07T09:27:11.324Z,3.20
2018-04-07T09:28:11.362Z,3.30
2018-04-07T09:29:11.400Z,3.30
2018-04-07T09:30:11.434Z,3.20
2018-04-07T09:31:11.472Z,3.70
2018-04-07T09:32:11.511Z,3.80
2018-04-07T09:33:11.545Z,3.40
2018-04-07T09:34:11.582Z,3.20
2018-04-07T09:35:11.617Z,3.70
2018-04-07T09:36:11.662Z,3.40
2018-04-07T09:37:11.692Z,3.30
2018-04-07T09:38:11.728Z,3.50
2018-04-07T09:39:11.765Z,3.10
2018-04-07T09:40:11.801Z,3.20
2018-04-07T09:41:11.840Z,3.50
2018-04-07T09:42:11.886Z,3.40
2018-04-07T09:43:11.913Z,3.70
2018-04-07T09:44:11.950Z,3.40
2018-04-07T09:45:11.991Z,3.30
2018-04-07T09:46:12.027Z,3.50
2018-04-07T09:47:12.061Z,3.50
2018-04-07T09:48:12.107Z,3.00
2018-04-07T09:49:12.136Z,3.50
2018-04-07T09:50:12.175Z,3.00
2018-04-07T09:51:12.209Z,3.00
2018-04-07T09:52:12.256Z,3.50
2018-04-07T09:53:12.282Z,3.10
2018-04-07T09:54:12.320Z,3.20
2018-04-07T09:55:12.356Z,3.10
2018-04-07T09:56:12.393Z,3.40
2018-04-07T09:57:12.430Z,3.50
2018-04-07T09:58:12.468Z,3.20
2018-04-07T09:59:12.555Z,3.00
2018-04-07T10:00:12.554Z,3.20
2018-04-07T10:01:12.580Z,3.90
2018-04-07T10:02:12.619Z,3.30
2018-04-07T10:03:12.699Z,3.60
2018-04-07T10:04:12.697Z,3.40
2018-04-07T10:05:12.741Z,4.50
2018-04-07T10:06:12.817Z,4.20
2018-04-07T10:07:12.804Z,5.00
2018-04-07T10:08:12.858Z,4.40
2018-04-07T10:09:12.883Z,4.00
2018-04-07T10:10:12.917Z,4.00
2018-04-07T10:11:12.964Z,3.90
2018-04-07T10:12:12.992Z,4.00
2018-04-07T10:13:13.030Z,4.00
2018-04-07T10:14:13.073Z,3.70
2018-04-07T10:15:13.104Z,3.60
2018-04-07T10:16:13.143Z,3.40
2018-04-07T10:17:13.180Z,3.50
2018-04-07T10:18:13.218Z,3.50
2018-04-07T10:19:13.255Z,3.40
2018-04-07T10:20:13.294Z,3.90
2018-04-07T10:21:13.330Z,3.40
2018-04-07T10:22:13.403Z,3.30
2018-04-07T10:23:13.404Z,3.50
2018-04-07T10:24:13.444Z,3.80
2018-04-07T10:25:13.482Z,3.50
2018-04-07T10:26:13.520Z,3.50
2018-04-07T10:27:13.556Z,3.20
2018-04-07T10:28:13.606Z,3.30
2018-04-07T10:29:13.641Z,3.20
2018-04-07T10:30:13.672Z,3.40
2018-04-07T10:31:13.710Z,3.50
2018-04-07T10:32:13.746Z,3.70
2018-04-07T10:33:13.801Z,3.60
2018-04-07T10:34:13.830Z,3.40
2018-04-07T10:35:13.860Z,3.60
2018-04-07T10:36:13.921Z,3.30
2018-04-07T10:37:13.936Z,3.60
2018-04-07T10:38:13.973Z,3.60
2018-04-07T10:39:14.012Z,3.50
2018-04-07T10:40:14.050Z,3.30
2018-04-07T10:41:14.088Z,3.60
2018-04-07T10:42:14.127Z,3.60
2018-04-07T10:43:14.164Z,3.60
2018-04-07T10:44:14.203Z,3.40
2018-04-07T10:45:14.242Z,4.00
2018-04-07T10:46:14.334Z,3.40
2018-04-07T10:47:14.371Z,3.30
2018-04-07T10:48:14.357Z,3.20
2018-04-07T10:49:14.395Z,3.40
2018-04-07T10:50:14.432Z,3.40
2018-04-07T10:51:14.469Z,3.40
2018-04-07T10:52:14.509Z,3.30
2018-04-07T10:53:14.550Z,3.40
2018-04-07T10:54:14.585Z,3.30
2018-04-07T10:55:14.621Z,3.20
2018-04-07T10:56:14.660Z,3.30
2018-04-07T10:57:14.699Z,3.70
2018-04-07T10:58:14.738Z,3.80
2018-04-07T10:59:14.792Z,3.90
2018-04-07T11:00:14.815Z,3.60
2018-04-07T11:01:14.853Z,4.00
2018-04-07T11:02:14.894Z,3.40
2018-04-07T11:03:14.930Z,3.20
2018-04-07T11:04:14.974Z,3.00
2018-04-07T11:05:15.008Z,3.50
2018-04-07T11:06:15.046Z,3.40
2018-04-07T11:07:15.088Z,3.20
2018-04-07T11:08:15.127Z,3.10
2018-04-07T11:09:15.163Z,3.00
2018-04-07T11:10:15.212Z,3.30
2018-04-07T11:11:15.243Z,2.80
2018-04-07T11:12:15.289Z,3.10
2018-04-07T11:13:15.317Z,3.70
2018-04-07T11:14:15.360Z,3.40
2018-04-07T11:15:15.392Z,3.70
2018-04-07T11:16:15.433Z,3.20
2018-04-07T11:17:15.517Z,3.10
2018-04-07T11:18:15.511Z,5.30
2018-04-07T11:19:15.548Z,6.10
2018-04-07T11:20:15.596Z,3.10
2018-04-07T11:21:15.629Z,3.40
2018-04-07T11:22:15.669Z,3.40
2018-04-07T11:23:15.708Z,4.30
2018-04-07T11:24:15.745Z,3.90
2018-04-07T11:25:15.782Z,3.50
2018-04-07T11:26:15.821Z,3.50
2018-04-07T11:27:15.861Z,3.00
2018-04-07T11:28:15.898Z,3.50
2018-04-07T11:29:15.939Z,3.60
2018-04-07T11:30:15.978Z,3.50
2018-04-07T11:31:16.017Z,3.60
2018-04-07T11:32:16.057Z,3.50
2018-04-07T11:33:16.096Z,3.60
2018-04-07T11:34:16.134Z,3.30
2018-04-07T11:35:16.173Z,3.30
2018-04-07T11:36:16.215Z,3.50
2018-04-07T11:37:16.252Z,3.40
2018-04-07T11:38:16.291Z,3.50
2018-04-07T11:39:16.328Z,3.50
2018-04-07T11:40:16.369Z,3.50
2018-04-07T11:41:16.407Z,3.70
2018-04-07T11:42:16.448Z,3.20
2018-04-07T11:43:16.486Z,3.60
2018-04-07T11:44:16.525Z,3.30
2018-04-07T11:45:16.584Z,3.70
2018-04-07T11:46:16.607Z,3.60
2018-04-07T11:47:16.642Z,3.70
2018-04-07T11:48:16.684Z,3.80
2018-04-07T11:49:16.724Z,4.10
2018-04-07T11:50:16.766Z,3.50
2018-04-07T11:51:16.800Z,4.40
2018-04-07T11:52:16.841Z,3.50
2018-04-07T11:53:16.881Z,2.90
2018-04-07T11:54:16.919Z,3.70
2018-04-07T11:55:16.958Z,3.50
2018-04-07T11:56:17.003Z,3.90
2018-04-07T11:57:17.050Z,3.70
2018-04-07T11:58:17.078Z,3.60
2018-04-07T11:59:17.115Z,3.80
2018-04-07T12:00:17.156Z,3.80
2018-04-07T12:01:17.194Z,3.80
2018-04-07T12:02:17.251Z,3.90
2018-04-07T12:03:17.277Z,3.60
2018-04-07T12:04:17.365Z,3.60
2018-04-07T12:05:17.357Z,3.40
2018-04-07T12:06:17.395Z,3.70
2018-04-07T12:07:17.437Z,3.50
2018-04-07T12:08:17.472Z,3.50
2018-04-07T12:09:17.514Z,3.10
2018-04-07T12:10:17.555Z,3.60
2018-04-07T12:11:17.593Z,3.50
2018-04-07T12:12:17.631Z,3.40
2018-04-07T12:13:17.673Z,3.60
2018-04-07T12:14:17.712Z,3.40
2018-04-07T12:15:17.755Z,4.80
2018-04-07T12:16:17.800Z,4.30
2018-04-07T12:17:17.831Z,5.30
2018-04-07T12:18:17.873Z,6.50
2018-04-07T12:19:17.962Z,5.40
2018-04-07T12:20:17.953Z,5.40
2018-04-07T12:21:17.991Z,5.00
2018-04-07T12:22:18.032Z,6.10
2018-04-07T12:23:18.071Z,6.20
2018-04-07T12:24:18.113Z,4.70
2018-04-07T12:25:18.150Z,3.60
2018-04-07T12:26:18.203Z,3.50
2018-04-07T12:27:18.234Z,3.20
2018-04-07T12:28:18.272Z,3.70
2018-04-07T12:29:18.313Z,4.30
2018-04-07T12:30:18.353Z,3.40
2018-04-07T12:31:18.399Z,3.50
2018-04-07T12:32:18.445Z,3.50
2018-04-07T12:33:18.472Z,3.20
2018-04-07T12:34:18.514Z,3.60
2018-04-07T12:35:18.551Z,3.80
2018-04-07T12:36:18.623Z,3.30
2018-04-07T12:37:18.642Z,3.30
2018-04-07T12:38:18.675Z,3.40
2018-04-07T12:39:18.714Z,2.90
2018-04-07T12:40:18.764Z,2.90
2018-04-07T12:41:18.796Z,2.90
2018-04-07T12:42:18.834Z,3.00
2018-04-07T12:43:18.874Z,2.80
2018-04-07T12:44:18.916Z,3.10
2018-04-07T12:45:18.956Z,3.20
2018-04-07T12:46:18.997Z,3.30
2018-04-07T12:47:19.038Z,3.00
2018-04-07T12:48:19.080Z,4.40
2018-04-07T12:49:19.121Z,3.50
2018-04-07T12:50:19.165Z,3.50
2018-04-07T12:51:19.248Z,3.40
2018-04-07T12:52:19.241Z,3.30
2018-04-07T12:53:19.280Z,3.80
2018-04-07T12:54:19.320Z,2.80
2018-04-07T12:55:19.365Z,2.90
2018-04-07T12:56:19.402Z,2.90
2018-04-07T12:57:19.443Z,3.30
2018-04-07T12:58:19.492Z,3.10
2018-04-07T12:59:19.532Z,3.10
2018-04-07T13:00:19.573Z,3.20
2018-04-07T13:01:19.607Z,3.30
2018-04-07T13:02:19.662Z,3.10
2018-04-07T13:03:19.686Z,3.20
2018-04-07T13:04:19.729Z,3.00
2018-04-07T13:05:19.769Z,3.10
2018-04-07T13:06:19.810Z,2.70
2018-04-07T13:07:19.850Z,2.90
2018-04-07T13:08:19.900Z,2.80
2018-04-07T13:09:19.932Z,2.90
2018-04-07T13:10:19.972Z,2.80
2018-04-07T13:11:20.022Z,2.80
2018-04-07T13:12:20.060Z,2.80
2018-04-07T13:13:20.104Z,2.40
2018-04-07T13:14:20.137Z,2.60
2018-04-07T13:15:20.176Z,2.60
2018-04-07T13:16:20.219Z,2.80
2018-04-07T13:17:20.267Z,3.10
2018-04-07T13:18:20.311Z,2.90
2018-04-07T13:19:20.344Z,2.60